Time;durP1;ratioP1;P1;durP2;ratioP2;P2;SDS_P1;SDS_P2;PMS_P1;PMS_P2;Temp;Humidity;BMP_temperature;BMP_pressure;BME280_temperature;BME280_humidity;BME280_pressure;Samples;Min_cycle;Max_cycle;Signal;HPM_P1;HPM_P2
2022/11/13 13:28:15;;;;;;;23.45;15.03;;;;;;;9.25;100.00;102098.58;5193764;54;46212;-74
2022/11/13 13:34:07;;;;;;;39.57;25.70;;;;;;;9.21;100.00;102089.08;5042232;56;1138841;-73
2022/11/13 13:39:55;;;;;;;28.95;15.72;;;;;;;9.16;100.00;102075.27;5101293;55;1143204;-74
2022/11/13 13:45:37;;;;;;;33.67;18.63;;;;;;;9.18;100.00;102089.22;5109808;56;1143143;-74
2022/11/13 13:51:04;;;;;;;29.23;18.13;;;;;;;9.12;100.00;102087.74;5104985;56;1143373;-74
2022/11/13 13:56:28;;;;;;;96.40;54.55;;;;;;;9.11;100.00;102078.11;4983368;57;1143013;-74
2022/11/13 14:01:58;;;;;;;42.53;23.40;;;;;;;9.04;100.00;102077.98;5032189;55;1143117;-75
2022/11/13 14:07:31;;;;;;;39.65;23.73;;;;;;;8.99;100.00;102076.51;5111008;55;1142883;-74
2022/11/13 14:12:56;;;;;;;40.85;21.73;;;;;;;8.96;100.00;102075.33;5179024;55;1142965;-74
2022/11/13 14:18:20;;;;;;;60.23;39.47;;;;;;;8.88;100.00;102062.47;5123624;55;1143081;-74
2022/11/13 14:23:47;;;;;;;56.20;31.05;;;;;;;8.91;100.00;102049.60;4990206;57;1143008;-74
2022/11/13 14:29:33;;;;;;;144.13;60.67;;;;;;;8.88;100.00;102051.05;5005839;57;1143019;-74
2022/11/13 14:34:59;;;;;;;50.23;25.93;;;;;;;8.85;100.00;102059.14;4961129;57;1145279;-74
2022/11/13 14:40:32;;;;;;;62.20;35.60;;;;;;;8.78;100.00;102050.17;4978375;58;1143148;-74
2022/11/13 14:46:00;;;;;;;53.87;29.23;;;;;;;8.75;100.00;102047.66;5017887;57;1143189;-73
2022/11/13 14:51:33;;;;;;;48.33;24.83;;;;;;;8.69;100.00;102050.61;5038477;57;1142930;-73
2022/11/13 14:56:59;;;;;;;55.77;28.13;;;;;;;8.63;100.00;102044.27;5036225;57;1143233;-73
2022/11/13 15:02:23;;;;;;;45.93;24.40;;;;;;;8.62;100.00;102032.47;5027941;57;1143137;-74
2022/11/13 15:07:47;;;;;;;61.00;30.37;;;;;;;8.58;100.00;102035.70;5090139;56;1142961;-72
2022/11/13 15:13:15;;;;;;;55.52;27.15;;;;;;;8.52;100.00;102039.09;5071658;56;1143211;-73
2022/11/13 15:18:40;;;;;;;66.40;33.53;;;;;;;8.46;100.00;102027.89;5008276;56;1143354;-73
2022/11/13 15:24:04;;;;;;;51.50;25.52;;;;;;;8.44;100.00;102032.38;4952926;57;1143372;-73
2022/11/13 15:29:27;;;;;;;65.47;32.60;;;;;;;8.42;100.00;102035.53;5096184;56;1143293;-73
2022/11/13 15:34:50;;;;;;;77.00;39.10;;;;;;;8.36;100.00;102018.69;5104734;56;1143171;-73
2022/11/13 15:40:16;;;;;;;254.53;176.47;;;;;;;8.41;100.00;102033.81;5059904;56;1143171;-73
2022/11/13 15:45:40;;;;;;;84.27;50.23;;;;;;;8.46;100.00;102034.48;5104126;56;1147397;-73
2022/11/13 15:51:04;;;;;;;69.50;30.87;;;;;;;8.49;100.00;102030.00;5061573;56;1143100;-73
2022/11/13 15:56:29;;;;;;;74.77;35.43;;;;;;;8.49;100.00;102030.85;5028842;57;1143006;-73
2022/11/13 16:01:55;;;;;;;81.43;34.33;;;;;;;8.45;100.00;102022.67;5030508;56;1143262;-72
2022/11/13 16:07:28;;;;;;;61.30;30.47;;;;;;;8.46;100.00;102027.03;5093718;56;1143054;-74
2022/11/13 16:12:51;;;;;;;72.80;36.17;;;;;;;8.44;100.00;102022.28;5085218;56;1143023;-72
2022/11/13 16:18:21;;;;;;;67.45;32.40;;;;;;;8.39;100.00;102012.42;5049959;56;1142988;-72
2022/11/13 16:23:45;;;;;;;82.17;35.70;;;;;;;8.46;100.00;102009.43;5114508;56;1142969;-73
2022/11/13 16:29:16;;;;;;;82.15;36.42;;;;;;;8.45;100.00;102010.81;5109190;56;1143112;-73
2022/11/13 16:34:39;;;;;;;74.60;35.57;;;;;;;8.44;100.00;102003.37;5090892;57;1143034;-73
2022/11/13 16:40:03;;;;;;;61.90;28.57;;;;;;;8.48;100.00;102008.51;5091082;57;1143002;-72
2022/11/13 16:45:26;;;;;;;80.30;37.45;;;;;;;8.53;100.00;102006.06;5091414;57;1143035;-73
2022/11/13 16:50:49;;;;;;;71.23;33.50;;;;;;;8.50;100.00;102007.98;5049166;57;1143351;-72
2022/11/13 16:56:27;;;;;;;;;;;;;;;8.54;100.00;102007.78;5005647;57;1143265;-72
2022/11/13 17:01:50;;;;;;;76.03;37.77;;;;;;;8.47;100.00;102005.02;5024438;58;976176;-73
2022/11/13 17:07:15;;;;;;;73.90;33.67;;;;;;;8.45;100.00;102001.12;5069531;57;1141150;-73
2022/11/13 17:12:38;;;;;;;94.28;46.50;;;;;;;8.40;100.00;102000.96;5111669;56;1142948;-73
2022/11/13 17:18:02;;;;;;;;;;;;;;;8.38;100.00;102000.17;5109527;56;1143049;-72
2022/11/13 17:23:26;;;;;;;52.80;24.85;;;;;;;8.42;100.00;101990.71;5045137;56;976515;-73
2022/11/13 17:28:50;;;;;;;60.35;29.50;;;;;;;8.34;100.00;101983.63;5035708;57;1140860;-73
2022/11/13 17:34:13;;;;;;;;;;;;;;;8.31;100.00;101985.50;5101260;56;1142879;-73
2022/11/13 17:39:35;;;;;;;40.87;21.77;;;;;;;8.29;100.00;101972.84;5119991;57;976257;-72
2022/11/13 17:44:59;;;;;;;36.17;19.60;;;;;;;8.28;100.00;101967.18;5064779;57;1141144;-73
2022/11/13 17:50:22;;;;;;;34.83;21.70;;;;;;;8.27;100.00;101970.73;5017270;57;1143070;-72
2022/11/13 17:55:56;;;;;;;33.60;17.77;;;;;;;8.23;100.00;101970.05;4989619;57;1142937;-74
2022/11/13 18:01:22;;;;;;;35.43;18.52;;;;;;;8.15;100.00;101975.25;5083982;56;1143238;-74
2022/11/13 18:06:48;;;;;;;29.00;17.53;;;;;;;8.11;100.00;101970.10;5022200;56;1143080;-74
2022/11/13 18:12:11;;;;;;;35.23;23.07;;;;;;;8.04;100.00;101972.63;5101345;56;1143256;-73
2022/11/13 18:17:34;;;;;;;32.47;20.40;;;;;;;8.03;100.00;101979.28;5018282;57;1143090;-73
2022/11/13 18:22:57;;;;;;;;;;;;;;;7.94;100.00;101980.55;4949691;57;1142906;-74
2022/11/13 18:28:21;;;;;;;31.30;18.13;;;;;;;7.96;100.00;101976.50;4898366;57;976125;-75
2022/11/13 18:33:44;;;;;;;35.77;21.13;;;;;;;7.93;100.00;101967.45;5058315;57;1140961;-74
2022/11/13 18:39:10;;;;;;;35.60;19.70;;;;;;;7.79;100.00;101969.36;5007701;57;1143008;-74
2022/11/13 18:44:35;;;;;;;33.05;19.02;;;;;;;7.67;100.00;101961.95;4977840;57;1143060;-74
2022/11/13 18:49:59;;;;;;;32.07;19.40;;;;;;;7.63;100.00;101972.25;5007157;57;1143021;-73
2022/11/13 18:55:22;;;;;;;38.03;21.30;;;;;;;7.58;100.00;101972.89;4883056;58;1143263;-73
2022/11/13 19:00:46;;;;;;;41.92;24.20;;;;;;;7.49;100.00;101976.74;4996834;57;1143054;-73
2022/11/13 19:06:12;;;;;;;44.45;24.70;;;;;;;7.42;100.00;101979.25;4931294;57;1143192;-72
2022/11/13 19:11:36;;;;;;;71.90;32.60;;;;;;;7.43;100.00;101986.69;4957283;57;1143189;-73
2022/11/13 19:17:00;;;;;;;55.05;30.08;;;;;;;7.46;100.00;101977.36;4845463;58;1143019;-65
2022/11/13 19:22:24;;;;;;;57.40;30.73;;;;;;;7.49;100.00;101973.25;4948732;58;1143173;-66
2022/11/13 19:27:48;;;;;;;62.80;34.53;;;;;;;7.43;100.00;101969.58;4851281;59;1143153;-67
2022/11/13 19:33:11;;;;;;;;;;;;;;;7.41;100.00;101976.22;4866531;59;1143114;-66
2022/11/13 19:38:34;;;;;;;66.88;34.88;;;;;;;7.39;100.00;101993.84;4836936;59;976052;-67
2022/11/13 19:43:59;;;;;;;75.20;38.97;;;;;;;7.31;100.00;101999.44;4949917;57;1140806;-67
2022/11/13 19:49:22;;;;;;;79.07;39.03;;;;;;;7.25;100.00;101992.23;4975055;57;1151635;-68
2022/11/13 19:54:45;;;;;;;69.67;37.20;;;;;;;7.19;100.00;101984.12;5030624;57;1142922;-66
2022/11/13 20:00:11;;;;;;;67.53;36.57;;;;;;;7.21;100.00;101989.32;5015168;57;1142945;-68
2022/11/13 20:05:35;;;;;;;79.17;40.23;;;;;;;7.18;100.00;101985.03;4870217;58;1143168;-68
2022/11/13 20:11:05;;;;;;;;;;;;;;;7.16;100.00;101980.78;5006641;56;1143142;-69
2022/11/13 20:16:29;;;;;;;74.80;37.00;;;;;;;7.15;100.00;101979.06;5134144;56;976122;-70
2022/11/13 20:21:53;;;;;;;75.00;38.13;;;;;;;7.12;100.00;101978.72;5055534;56;1140998;-69
2022/11/13 20:27:16;;;;;;;84.67;42.13;;;;;;;7.08;100.00;101971.86;5051390;57;1143062;-68
